Time;durP1;ratioP1;P1;durP2;ratioP2;P2;SDS_P1;SDS_P2;PMS_P1;PMS_P2;Temp;Humidity;BMP_temperature;BMP_pressure;BME280_temperature;BME280_humidity;BME280_pressure;Samples;Min_cycle;Max_cycle;Signal;HPM_P1;HPM_P2
2022/11/18 00:01:24;;;;;;;3.10;1.30;;;12.20;99.90;;;;;;4973028;28;20188;-83
2022/11/18 00:03:51;;;;;;;4.80;1.67;;;12.20;99.90;;;;;;4955451;28;20816;-83
2022/11/18 00:06:23;;;;;;;4.95;1.85;;;12.30;99.90;;;;;;4970387;28;20634;-83
2022/11/18 00:08:49;;;;;;;4.95;1.70;;;12.30;99.90;;;;;;4953931;28;20164;-83
2022/11/18 00:14:18;;;;;;;3.65;1.80;;;12.20;99.90;;;;;;4970606;28;20258;-84
2022/11/18 00:16:57;;;;;;;3.03;1.65;;;12.20;99.90;;;;;;4955648;28;20172;-84
2022/11/18 00:19:26;;;;;;;9.57;1.70;;;12.20;99.90;;;;;;4956550;28;20201;-84
2022/11/18 00:21:52;;;;;;;5.32;2.25;;;12.20;99.90;;;;;;4957363;28;20219;-84
2022/11/18 00:24:19;;;;;;;3.60;1.70;;;12.10;99.90;;;;;;4974542;28;20258;-84
2022/11/18 00:26:45;;;;;;;2.88;1.88;;;12.20;99.90;;;;;;4974096;28;20282;-83
2022/11/18 00:29:11;;;;;;;3.60;1.50;;;12.10;99.90;;;;;;4956379;28;20693;-83
2022/11/18 00:31:37;;;;;;;4.60;2.10;;;12.10;99.90;;;;;;4973874;28;20590;-83
2022/11/18 00:34:04;;;;;;;3.00;1.50;;;12.10;99.90;;;;;;4973708;28;20275;-83
2022/11/18 00:36:30;;;;;;;3.58;1.55;;;12.10;99.90;;;;;;4974086;28;21206;-83
2022/11/18 00:38:55;;;;;;;3.63;1.53;;;12.10;99.90;;;;;;4973978;28;20247;-83
2022/11/18 00:41:21;;;;;;;3.60;1.80;;;12.10;99.90;;;;;;4974078;28;20620;-85
2022/11/18 00:43:47;;;;;;;4.50;1.70;;;12.10;99.90;;;;;;4973759;28;20571;-83
2022/11/18 00:46:13;;;;;;;3.27;1.67;;;12.10;99.90;;;;;;4973524;28;20218;-83
2022/11/18 00:48:39;;;;;;;4.03;1.50;;;12.10;99.90;;;;;;4977105;28;20195;-83
2022/11/18 00:51:14;;;;;;;5.30;1.65;;;12.10;99.90;;;;;;4957956;28;20208;-83
2022/11/18 00:53:41;;;;;;;7.00;1.65;;;12.10;99.90;;;;;;4956286;28;20168;-83
2022/11/18 00:56:07;;;;;;;3.78;1.95;;;12.10;99.90;;;;;;4940037;28;20207;-82
2022/11/18 00:58:33;;;;;;;4.82;1.35;;;12.20;99.90;;;;;;4973352;28;20207;-83
2022/11/18 01:00:59;;;;;;;3.90;1.60;;;12.20;99.90;;;;;;4955638;28;20223;-82
2022/11/18 01:03:26;;;;;;;3.53;1.40;;;12.20;99.90;;;;;;4955545;28;20183;-82
2022/11/18 01:05:52;;;;;;;5.15;1.30;;;12.20;99.90;;;;;;4955657;28;20215;-82
2022/11/18 01:08:18;;;;;;;2.20;1.30;;;12.20;99.90;;;;;;4973495;28;20222;-83
2022/11/18 01:10:45;;;;;;;2.50;1.20;;;12.20;99.90;;;;;;4955470;28;20200;-83
2022/11/18 01:13:19;;;;;;;4.00;1.20;;;12.20;99.90;;;;;;4939699;28;20183;-83
2022/11/18 01:15:55;;;;;;;4.90;1.50;;;12.20;99.90;;;;;;4973050;28;20787;-83
2022/11/18 01:18:27;;;;;;;3.85;1.60;;;12.20;99.90;;;;;;4956135;28;20175;-83
2022/11/18 01:20:53;;;;;;;4.07;2.00;;;12.10;99.90;;;;;;4972891;28;20191;-83
2022/11/18 01:23:19;;;;;;;3.08;1.45;;;12.10;99.90;;;;;;4973156;28;20172;-84
2022/11/18 01:25:47;;;;;;;3.05;1.23;;;12.10;99.90;;;;;;4975976;28;20206;-84
2022/11/18 01:28:15;;;;;;;2.50;1.40;;;12.10;99.90;;;;;;4973912;28;20168;-84
2022/11/18 01:30:41;;;;;;;3.35;1.52;;;12.10;99.90;;;;;;4955762;28;20196;-83
2022/11/18 01:33:07;;;;;;;2.67;1.20;;;12.10;99.90;;;;;;4972366;28;20216;-83
2022/11/18 01:35:41;;;;;;;3.25;1.27;;;12.10;99.90;;;;;;4955750;28;20175;-82
2022/11/18 01:38:11;;;;;;;2.67;1.20;;;12.10;99.90;;;;;;4972885;28;20678;-82
2022/11/18 01:40:37;;;;;;;4.18;1.92;;;12.20;99.90;;;;;;4971535;28;20195;-83
2022/11/18 01:43:12;;;;;;;6.15;1.55;;;12.20;99.90;;;;;;4955109;28;20600;-84
2022/11/18 01:45:39;;;;;;;3.35;1.50;;;12.20;99.90;;;;;;4955507;28;20278;-83
2022/11/18 01:48:08;;;;;;;6.85;1.95;;;12.20;99.90;;;;;;4955197;28;20172;-83
2022/11/18 01:50:37;;;;;;;2.80;1.60;;;12.20;99.90;;;;;;4929773;28;20753;-82
2022/11/18 01:53:09;;;;;;;2.40;1.10;;;12.20;99.90;;;;;;4971973;28;20379;-83
2022/11/18 01:55:37;;;;;;;6.07;1.67;;;12.20;99.90;;;;;;4972669;28;20229;-83
2022/11/18 01:58:16;;;;;;;5.68;1.60;;;12.20;99.90;;;;;;4972710;28;20203;-82
2022/11/18 02:00:42;;;;;;;2.42;1.52;;;12.20;99.90;;;;;;4971449;28;20215;-83
2022/11/18 02:03:08;;;;;;;3.00;1.37;;;12.20;99.90;;;;;;4977110;28;20528;-84
2022/11/18 02:05:35;;;;;;;3.22;1.35;;;12.20;99.90;;;;;;4973447;28;20615;-83
2022/11/18 02:08:02;;;;;;;5.05;1.50;;;12.20;99.90;;;;;;4972019;28;20187;-83
2022/11/18 02:10:28;;;;;;;5.85;1.60;;;12.20;99.90;;;;;;4972344;28;20676;-83
2022/11/18 02:12:55;;;;;;;1.70;0.93;;;12.20;99.90;;;;;;4955313;28;20171;-84
2022/11/18 02:15:45;;;;;;;2.50;1.55;;;12.20;99.90;;;;;;4973174;28;20259;-84
2022/11/18 02:18:44;;;;;;;7.30;2.08;;;12.10;99.90;;;;;;4973748;28;20215;-83
2022/11/18 02:21:35;;;;;;;3.17;1.45;;;12.10;99.90;;;;;;4973402;28;20211;-84
2022/11/18 02:24:11;;;;;;;4.20;2.13;;;12.10;99.90;;;;;;4974898;28;20695;-84
2022/11/18 02:26:42;;;;;;;2.40;1.25;;;12.00;99.90;;;;;;4976134;28;20191;-84
2022/11/18 02:29:19;;;;;;;4.28;2.65;;;12.10;99.90;;;;;;4973343;28;20227;-84
2022/11/18 02:31:59;;;;;;;4.10;1.30;;;12.10;99.90;;;;;;4973674;28;20191;-84
2022/11/18 02:34:46;;;;;;;3.20;1.40;;;12.10;99.90;;;;;;4955395;28;20215;-84
2022/11/18 02:37:31;;;;;;;2.67;1.20;;;12.10;99.90;;;;;;4972649;28;20254;-84
2022/11/18 02:40:02;;;;;;;4.40;1.27;;;12.20;99.90;;;;;;4973873;28;20191;-84
2022/11/18 02:42:31;;;;;;;3.58;1.30;;;12.20;99.90;;;;;;4973790;28;20234;-84
2022/11/18 02:45:14;;;;;;;6.80;1.58;;;12.20;99.90;;;;;;4970473;28;20178;-83
2022/11/18 02:47:42;;;;;;;4.90;1.58;;;12.10;99.90;;;;;;4971609;28;20705;-82
2022/11/18 02:50:15;;;;;;;5.25;1.65;;;12.10;99.90;;;;;;4977701;28;20302;-82
2022/11/18 02:52:43;;;;;;;7.55;1.80;;;12.10;99.90;;;;;;4990477;28;20283;-83
2022/11/18 02:55:12;;;;;;;4.40;1.40;;;12.00;99.90;;;;;;4990824;28;20171;-83
2022/11/18 02:57:40;;;;;;;2.40;1.60;;;12.00;99.90;;;;;;4989401;28;20163;-82
2022/11/18 03:00:06;;;;;;;4.55;1.40;;;12.00;99.90;;;;;;4990546;28;20203;-83
2022/11/18 03:02:44;;;;;;;4.10;1.90;;;12.00;99.90;;;;;;4972770;28;20171;-82
2022/11/18 03:05:20;;;;;;;4.15;1.65;;;12.00;99.90;;;;;;4990798;28;20534;-82
2022/11/18 03:07:52;;;;;;;2.90;1.45;;;12.00;99.90;;;;;;4990382;28;20237;-82
2022/11/18 03:10:22;;;;;;;4.28;1.40;;;12.00;99.90;;;;;;4990245;28;20678;-82
2022/11/18 03:12:58;;;;;;;4.32;1.75;;;12.00;99.90;;;;;;4990212;28;20163;-82
2022/11/18 03:15:51;;;;;;;3.47;1.77;;;12.00;99.90;;;;;;4973810;28;20652;-82
2022/11/18 03:18:29;;;;;;;3.00;1.42;;;12.00;99.90;;;;;;4977002;28;20170;-82
2022/11/18 03:21:08;;;;;;;5.97;1.70;;;11.90;99.90;;;;;;4973270;28;20389;-83
2022/11/18 03:23:40;;;;;;;4.82;1.88;;;11.90;99.90;;;;;;4972855;28;20565;-82
2022/11/18 03:26:14;;;;;;;3.20;1.13;;;12.00;99.90;;;;;;4990266;28;20253;-82
2022/11/18 03:28:49;;;;;;;6.53;1.70;;;12.00;99.90;;;;;;4990294;28;20170;-83
2022/11/18 03:31:34;;;;;;;2.97;1.25;;;12.00;99.90;;;;;;4990235;28;20218;-82
2022/11/18 03:34:13;;;;;;;4.85;1.58;;;12.00;99.90;;;;;;4990208;28;20181;-83
2022/11/18 03:36:44;;;;;;;6.85;2.45;;;12.00;99.90;;;;;;4973167;28;20174;-84
2022/11/18 03:39:12;;;;;;;2.72;1.10;;;12.00;99.90;;;;;;4972838;28;20202;-83
2022/11/18 03:41:44;;;;;;;2.78;1.52;;;11.90;99.90;;;;;;4990367;28;20249;-83
2022/11/18 03:44:15;;;;;;;3.15;1.77;;;11.90;99.90;;;;;;4989841;28;20602;-84
2022/11/18 03:46:45;;;;;;;5.00;1.80;;;11.90;99.90;;;;;;4990419;28;20705;-83
2022/11/18 03:49:18;;;;;;;5.80;2.15;;;11.90;99.90;;;;;;4972499;28;20182;-83
2022/11/18 03:51:54;;;;;;;2.85;1.77;;;11.90;99.90;;;;;;4955792;28;20215;-84
2022/11/18 03:54:28;;;;;;;4.80;1.60;;;11.90;99.90;;;;;;4976199;28;20164;-84
2022/11/18 03:56:59;;;;;;;3.17;1.40;;;11.90;99.90;;;;;;4976536;28;20208;-83
2022/11/18 03:59:36;;;;;;;7.38;1.83;;;11.90;99.90;;;;;;4975936;28;20694;-83
2022/11/18 04:02:15;;;;;;;6.50;1.60;;;11.90;99.90;;;;;;4975237;28;20267;-84
2022/11/18 04:04:44;;;;;;;2.92;1.30;;;11.90;99.90;;;;;;4957412;28;20262;-84
2022/11/18 04:07:36;;;;;;;5.10;1.25;;;11.90;99.90;;;;;;4957261;28;20200;-83
2022/11/18 04:10:16;;;;;;;2.78;1.77;;;11.90;99.90;;;;;;4974048;28;20179;-83
2022/11/18 04:13:20;;;;;;;3.83;1.20;;;11.90;99.90;;;;;;4956823;28;20176;-82
2022/11/18 04:15:46;;;;;;;3.47;1.35;;;11.90;99.90;;;;;;4974031;28;20272;-83
2022/11/18 04:18:11;;;;;;;5.67;1.77;;;11.90;99.90;;;;;;4957032;28;20707;-83
2022/11/18 04:20:38;;;;;;;4.43;1.60;;;11.90;99.90;;;;;;4956589;28;20278;-83
2022/11/18 04:23:05;;;;;;;3.10;1.60;;;11.90;99.90;;;;;;4974306;28;20280;-83
2022/11/18 04:25:32;;;;;;;3.00;1.50;;;11.90;99.90;;;;;;4974093;28;20252;-84
2022/11/18 04:27:57;;;;;;;4.22;1.55;;;11.90;99.90;;;;;;4922140;29;20243;-83
2022/11/18 04:30:23;;;;;;;5.33;1.50;;;11.90;99.90;;;;;;4971138;28;20184;-83
2022/11/18 04:32:49;;;;;;;4.27;1.50;;;11.90;99.90;;;;;;4977460;28;20573;-83
2022/11/18 04:35:15;;;;;;;2.60;0.90;;;11.90;99.90;;;;;;4973947;28;20579;-83
2022/11/18 04:37:41;;;;;;;3.50;1.73;;;11.90;99.90;;;;;;4973751;28;20207;-83
2022/11/18 04:40:08;;;;;;;3.17;1.50;;;11.90;99.90;;;;;;4956553;28;20545;-84
2022/11/18 04:42:33;;;;;;;5.97;2.50;;;11.90;99.90;;;;;;4996075;23;20274;-81
2022/11/18 04:44:59;;;;;;;4.77;1.23;;;12.00;99.90;;;;;;4971451;28;20562;-81
2022/11/18 04:47:25;;;;;;;4.30;1.40;;;12.00;99.90;;;;;;4960865;28;20226;-78
2022/11/18 04:49:51;;;;;;;4.93;1.30;;;12.10;99.90;;;;;;4993141;28;20601;-81
2022/11/18 04:52:17;;;;;;;8.90;1.43;;;12.10;99.90;;;;;;4986788;28;20672;-81
2022/11/18 04:54:43;;;;;;;3.73;1.60;;;12.10;99.90;;;;;;4986484;28;20209;-81
2022/11/18 04:57:09;;;;;;;2.33;1.10;;;12.10;99.90;;;;;;4985540;28;20637;-81
2022/11/18 04:59:34;;;;;;;4.85;1.23;;;12.20;99.90;;;;;;4980267;28;20172;-80
2022/11/18 05:02:00;;;;;;;4.20;1.50;;;12.20;99.90;;;;;;4992215;28;20855;-80
2022/11/18 05:04:29;;;;;;;4.03;1.70;;;12.20;99.90;;;;;;4989874;28;20183;-80
2022/11/18 05:06:56;;;;;;;3.28;1.52;;;12.20;99.90;;;;;;4992553;28;20226;-81
2022/11/18 05:09:22;;;;;;;6.70;1.80;;;12.20;99.90;;;;;;4991674;28;20190;-79
2022/11/18 05:14:32;;;;;;;4.13;1.42;;;12.20;99.90;;;;;;5008684;28;20248;-79
2022/11/18 05:17:00;;;;;;;5.72;1.60;;;12.10;99.90;;;;;;4992707;28;20202;-79
2022/11/18 05:19:27;;;;;;;4.07;1.40;;;12.10;99.90;;;;;;4992640;28;20551;-79
2022/11/18 05:21:53;;;;;;;2.75;1.10;;;12.00;99.90;;;;;;4992733;28;20194;-79
2022/11/18 05:24:22;;;;;;;3.05;1.20;;;12.00;99.90;;;;;;4998876;28;20195;-79
2022/11/18 05:26:50;;;;;;;4.60;1.48;;;12.00;99.90;;;;;;4991530;28;20569;-79
2022/11/18 05:29:18;;;;;;;2.85;1.33;;;12.00;99.90;;;;;;4992481;28;20174;-79
2022/11/18 05:31:45;;;;;;;3.65;1.90;;;12.00;99.90;;;;;;4992301;28;20191;-78
2022/11/18 05:34:11;;;;;;;5.97;1.50;;;12.10;99.90;;;;;;4991902;28;20226;-78
2022/11/18 05:36:36;;;;;;;3.10;2.23;;;12.10;99.90;;;;;;4992470;28;20171;-78
2022/11/18 05:39:02;;;;;;;3.10;1.37;;;12.00;99.90;;;;;;4974427;28;20171;-78
2022/11/18 05:44:13;;;;;;;4.60;1.50;;;12.10;99.90;;;;;;4991771;28;20899;-79
2022/11/18 05:46:38;;;;;;;5.75;1.40;;;12.10;99.90;;;;;;4991876;28;20737;-78
2022/11/18 05:49:05;;;;;;;3.20;1.20;;;12.10;99.90;;;;;;4991693;28;20171;-78
2022/11/18 05:51:30;;;;;;;5.25;1.90;;;12.00;99.90;;;;;;4961490;28;20542;-78
2022/11/18 05:53:57;;;;;;;3.93;1.37;;;12.00;99.90;;;;;;4954833;28;20178;-78
2022/11/18 05:56:27;;;;;;;3.72;1.38;;;12.00;99.90;;;;;;4972155;28;20176;-78
2022/11/18 05:58:53;;;;;;;3.70;1.25;;;11.90;99.90;;;;;;4972763;28;20167;-79
2022/11/18 06:01:24;;;;;;;2.70;1.10;;;11.90;99.90;;;;;;4976157;28;20172;-78
2022/11/18 06:03:50;;;;;;;4.53;1.83;;;11.90;99.90;;;;;;4972282;28;20168;-78
2022/11/18 06:06:19;;;;;;;3.95;1.17;;;11.90;99.90;;;;;;4972227;28;20200;-78
2022/11/18 06:08:53;;;;;;;4.40;1.67;;;11.90;99.90;;;;;;4972239;28;20554;-78
2022/11/18 06:11:19;;;;;;;3.38;1.92;;;11.90;99.90;;;;;;4970426;28;20715;-78
2022/11/18 06:13:52;;;;;;;3.22;1.20;;;11.80;99.90;;;;;;4954118;28;20187;-78
2022/11/18 06:16:23;;;;;;;2.30;1.20;;;11.90;99.90;;;;;;4971844;28;20183;-78
2022/11/18 06:18:49;;;;;;;3.40;1.40;;;11.80;99.90;;;;;;4970748;28;20199;-78
2022/11/18 06:21:15;;;;;;;3.40;1.60;;;11.80;99.90;;;;;;4938244;28;20671;-78
2022/11/18 06:23:41;;;;;;;2.50;1.47;;;11.80;99.90;;;;;;4970358;28;20636;-78
2022/11/18 06:26:08;;;;;;;4.70;1.30;;;11.80;99.90;;;;;;4971388;28;20650;-78
2022/11/18 06:28:35;;;;;;;4.40;1.50;;;11.80;99.90;;;;;;4971967;28;20160;-78
2022/11/18 06:31:00;;;;;;;3.15;1.50;;;11.80;99.90;;;;;;4954147;28;20248;-78
2022/11/18 06:33:26;;;;;;;4.97;1.83;;;11.90;99.90;;;;;;4954039;28;20278;-78
2022/11/18 06:35:52;;;;;;;2.07;1.37;;;11.90;99.90;;;;;;4971587;28;21142;-78
2022/11/18 06:38:18;;;;;;;7.90;1.80;;;11.90;99.90;;;;;;4975424;28;20583;-78
2022/11/18 06:40:43;;;;;;;3.50;1.37;;;11.90;99.90;;;;;;4970559;28;20171;-78
2022/11/18 06:48:47;;;;;;;2.65;1.10;;;12.10;99.90;;;;;;4971449;28;20172;-78
2022/11/18 06:51:13;;;;;;;5.23;1.30;;;12.10;99.90;;;;;;4972330;28;20179;-78
2022/11/18 06:53:39;;;;;;;2.95;1.10;;;12.20;99.90;;;;;;4950548;28;20568;-78
2022/11/18 06:56:08;;;;;;;2.33;1.27;;;12.20;99.90;;;;;;4955427;28;20184;-78
2022/11/18 06:58:34;;;;;;;3.38;1.70;;;12.20;99.90;;;;;;4956920;28;20194;-78
2022/11/18 07:01:13;;;;;;;4.35;1.13;;;12.20;99.90;;;;;;4983457;28;20182;-78
2022/11/18 07:03:40;;;;;;;3.75;1.50;;;12.30;99.90;;;;;;4971263;28;20172;-79
2022/11/18 07:06:07;;;;;;;3.05;1.40;;;12.30;99.90;;;;;;4967253;28;20199;-79
2022/11/18 07:08:37;;;;;;;3.58;1.83;;;12.30;99.90;;;;;;4990475;28;20575;-78
2022/11/18 07:11:08;;;;;;;5.00;2.03;;;12.30;99.90;;;;;;4973103;28;20663;-79
2022/11/18 07:13:34;;;;;;;4.88;2.03;;;12.30;99.90;;;;;;4990466;28;20174;-79
2022/11/18 07:16:04;;;;;;;3.20;1.60;;;12.30;99.90;;;;;;4988009;28;20539;-80
2022/11/18 07:18:31;;;;;;;5.70;2.25;;;12.30;99.90;;;;;;4972538;28;20618;-80
2022/11/18 07:21:01;;;;;;;5.53;2.20;;;12.30;99.90;;;;;;4980935;28;20181;-80
2022/11/18 07:23:28;;;;;;;3.28;2.00;;;12.30;99.90;;;;;;4954893;28;20271;-79
2022/11/18 07:25:54;;;;;;;4.95;1.80;;;12.30;99.90;;;;;;4954552;28;20622;-79
2022/11/18 07:28:21;;;;;;;5.43;2.10;;;12.30;99.90;;;;;;4973064;28;20179;-79
2022/11/18 07:30:46;;;;;;;3.80;2.22;;;12.30;99.90;;;;;;4973878;28;20207;-79
2022/11/18 07:33:12;;;;;;;4.33;1.80;;;12.30;99.90;;;;;;4971109;28;20187;-79
2022/11/18 07:35:38;;;;;;;6.10;2.30;;;12.30;99.90;;;;;;4955333;28;20175;-79
2022/11/18 07:38:03;;;;;;;6.73;2.17;;;12.30;99.90;;;;;;4971919;28;20172;-80
2022/11/18 07:40:29;;;;;;;4.30;2.07;;;12.30;99.90;;;;;;4972230;28;20172;-80
2022/11/18 07:42:55;;;;;;;5.00;2.00;;;12.30;99.90;;;;;;4955070;28;20616;-79
2022/11/18 07:45:22;;;;;;;3.80;1.80;;;12.40;99.90;;;;;;4955558;28;20215;-80
2022/11/18 07:47:48;;;;;;;5.88;1.77;;;12.40;99.90;;;;;;4972944;28;20630;-79
2022/11/18 07:50:14;;;;;;;3.93;1.90;;;12.50;99.90;;;;;;4955853;28;20168;-81
2022/11/18 07:52:40;;;;;;;4.90;2.50;;;12.60;99.90;;;;;;4973676;28;20562;-80
2022/11/18 07:55:06;;;;;;;2.70;1.87;;;12.60;99.90;;;;;;4973230;28;20582;-80
2022/11/18 07:57:32;;;;;;;5.90;2.53;;;12.60;99.90;;;;;;4972013;28;20235;-80
2022/11/18 07:59:57;;;;;;;4.87;1.80;;;12.70;99.90;;;;;;4978656;28;20175;-80
2022/11/18 08:02:23;;;;;;;3.00;2.20;;;12.80;99.90;;;;;;4965830;28;20230;-80
2022/11/18 08:04:49;;;;;;;6.90;2.37;;;12.80;99.90;;;;;;4992303;28;20163;-80
2022/11/18 08:07:15;;;;;;;10.53;2.47;;;12.90;99.90;;;;;;4991446;28;20659;-81
2022/11/18 08:09:40;;;;;;;7.03;2.53;;;13.00;99.90;;;;;;4991712;28;20172;-80
2022/11/18 08:12:06;;;;;;;6.10;2.00;;;13.10;99.90;;;;;;4991039;28;20195;-79
2022/11/18 08:14:32;;;;;;;3.13;2.07;;;13.10;99.90;;;;;;4978826;28;20168;-78
2022/11/18 08:16:58;;;;;;;3.63;1.70;;;13.20;99.90;;;;;;4983773;28;20237;-78
2022/11/18 08:19:23;;;;;;;4.77;2.00;;;13.30;99.90;;;;;;4983334;28;20274;-79
2022/11/18 08:21:49;;;;;;;3.73;1.87;;;13.40;99.90;;;;;;4974434;28;20593;-78
2022/11/18 08:24:15;;;;;;;4.30;1.70;;;13.50;99.90;;;;;;4957563;28;20175;-79
2022/11/18 08:26:40;;;;;;;4.73;1.60;;;13.70;99.90;;;;;;4991862;28;20202;-79
2022/11/18 08:29:06;;;;;;;2.60;1.53;;;13.70;99.90;;;;;;4993250;28;20182;-79
2022/11/18 08:31:32;;;;;;;5.13;1.33;;;13.90;99.90;;;;;;4991958;28;20714;-79
2022/11/18 08:34:04;;;;;;;2.90;1.23;;;14.00;99.90;;;;;;4990946;28;20804;-78
2022/11/18 08:36:35;;;;;;;2.77;1.60;;;14.10;99.90;;;;;;4992056;28;20566;-79
2022/11/18 08:39:05;;;;;;;2.60;1.47;;;14.20;99.90;;;;;;4994625;28;20577;-78
2022/11/18 08:41:40;;;;;;;2.73;1.40;;;14.20;99.90;;;;;;4961622;28;20697;-80
2022/11/18 08:44:08;;;;;;;3.20;1.50;;;14.30;99.90;;;;;;4995123;28;20948;-79
2022/11/18 08:46:34;;;;;;;7.43;2.00;;;14.40;99.90;;;;;;4986687;28;20646;-79
2022/11/18 08:49:01;;;;;;;4.07;1.40;;;14.50;99.90;;;;;;4986056;28;20954;-79
2022/11/18 08:51:27;;;;;;;5.10;1.20;;;14.50;99.90;;;;;;4966354;28;20198;-80
2022/11/18 08:53:53;;;;;;;9.50;1.43;;;14.60;99.90;;;;;;4974228;28;20645;-79
2022/11/18 08:56:20;;;;;;;4.90;1.30;;;14.60;99.90;;;;;;4968036;28;20576;-79
2022/11/18 08:58:46;;;;;;;3.60;1.00;;;14.70;99.90;;;;;;4973689;28;20190;-79
2022/11/18 09:01:12;;;;;;;2.77;1.20;;;14.70;99.90;;;;;;4974003;28;21126;-79
2022/11/18 09:03:38;;;;;;;2.40;1.10;;;14.70;99.90;;;;;;4974144;28;20591;-79
2022/11/18 09:06:19;;;;;;;6.13;1.70;;;14.70;99.90;;;;;;4957861;28;21443;-79
2022/11/18 09:08:45;;;;;;;6.23;1.43;;;14.70;99.90;;;;;;4973059;28;20582;-78
2022/11/18 09:11:20;;;;;;;2.67;1.30;;;14.70;99.90;;;;;;4956536;28;20654;-78
2022/11/18 09:13:46;;;;;;;4.90;1.43;;;14.70;99.90;;;;;;4973949;28;20652;-78
2022/11/18 09:16:12;;;;;;;2.03;1.10;;;14.70;99.90;;;;;;4956793;28;20916;-78
2022/11/18 09:18:38;;;;;;;5.07;1.43;;;14.60;99.90;;;;;;4956087;28;20679;-79
2022/11/18 09:21:07;;;;;;;2.47;1.40;;;14.60;99.90;;;;;;4955888;28;20587;-78
2022/11/18 09:23:34;;;;;;;3.90;1.85;;;14.50;99.90;;;;;;4972478;28;20663;-79
2022/11/18 09:26:11;;;;;;;4.50;1.87;;;14.50;99.90;;;;;;4973357;28;20535;-79
2022/11/18 09:28:38;;;;;;;3.57;1.47;;;14.50;99.90;;;;;;4955489;28;20570;-79
2022/11/18 09:31:06;;;;;;;3.53;1.40;;;14.50;99.90;;;;;;4955744;28;20606;-79
2022/11/18 09:33:33;;;;;;;3.67;1.70;;;14.40;99.90;;;;;;4973859;28;20560;-79
2022/11/18 09:35:59;;;;;;;6.47;2.30;;;14.40;99.90;;;;;;4957299;28;21114;-79
2022/11/18 09:38:27;;;;;;;3.80;1.30;;;14.40;99.90;;;;;;4958093;28;20578;-79
2022/11/18 09:41:30;;;;;;;2.50;1.00;;;14.40;99.90;;;;;;4973881;28;20615;-79
2022/11/18 09:44:34;;;;;;;5.80;1.00;;;14.40;99.90;;;;;;4955691;29;20961;-79
2022/11/18 09:46:59;;;;;;;5.60;1.47;;;14.50;99.90;;;;;;4956293;29;20651;-79
2022/11/18 09:49:32;;;;;;;2.90;0.90;;;14.60;99.90;;;;;;4954353;28;20599;-79
2022/11/18 09:52:04;;;;;;;3.00;1.00;;;14.60;99.90;;;;;;4956094;28;20189;-79
2022/11/18 09:54:33;;;;;;;3.00;0.90;;;14.70;99.90;;;;;;4938343;29;20945;-79
2022/11/18 09:57:00;;;;;;;3.80;1.10;;;14.80;99.90;;;;;;4953404;29;20915;-79
2022/11/18 09:59:30;;;;;;;6.90;1.20;;;14.90;99.90;;;;;;4953651;29;20576;-79
2022/11/18 10:02:22;;;;;;;4.17;0.90;;;14.90;99.90;;;;;;4954362;28;20628;-79
2022/11/18 10:04:48;;;;;;;3.50;1.30;;;15.00;99.90;;;;;;4956351;28;20615;-78
2022/11/18 10:07:25;;;;;;;4.77;1.10;;;15.10;99.90;;;;;;4955977;28;20669;-79
2022/11/18 10:09:53;;;;;;;2.53;0.90;;;15.10;99.90;;;;;;4971967;28;20168;-79
2022/11/18 10:12:37;;;;;;;3.13;0.90;;;15.20;99.90;;;;;;4971894;28;20591;-78
2022/11/18 10:15:30;;;;;;;4.37;0.90;;;15.20;99.90;;;;;;4972147;28;20590;-78
2022/11/18 10:18:17;;;;;;;4.97;1.20;;;15.30;99.90;;;;;;4972131;28;20567;-78
2022/11/18 10:20:55;;;;;;;7.10;1.30;;;15.30;99.90;;;;;;4957023;28;20567;-78
2022/11/18 10:23:23;;;;;;;5.83;0.90;;;15.50;99.90;;;;;;4954533;28;20609;-79
2022/11/18 10:25:49;;;;;;;3.40;0.80;;;15.70;99.90;;;;;;4971756;28;20643;-79
2022/11/18 10:28:23;;;;;;;5.03;1.83;;;15.80;99.90;;;;;;4971837;28;21403;-78
2022/11/18 10:30:50;;;;;;;5.97;1.20;;;16.00;99.90;;;;;;4970411;28;20226;-78
2022/11/18 10:33:21;;;;;;;4.03;1.50;;;16.10;99.90;;;;;;4971341;28;21139;-79
2022/11/18 10:35:48;;;;;;;5.97;1.20;;;16.10;99.90;;;;;;4971283;28;20612;-79
2022/11/18 10:38:14;;;;;;;4.47;1.00;;;16.10;99.90;;;;;;4970316;28;20674;-79
2022/11/18 10:40:55;;;;;;;5.43;1.30;;;16.10;99.90;;;;;;4971354;28;20666;-78
2022/11/18 10:43:44;;;;;;;5.10;1.93;;;16.10;99.90;;;;;;4985157;23;20230;-72
2022/11/18 10:46:24;;;;;;;3.27;1.10;;;16.00;99.90;;;;;;4993366;28;20660;-72
2022/11/18 10:49:08;;;;;;;5.07;1.20;;;16.00;99.90;;;;;;4992739;28;20611;-72
2022/11/18 10:51:36;;;;;;;3.97;1.40;;;16.00;99.90;;;;;;5010053;28;20562;-72
2022/11/18 10:54:11;;;;;;;5.87;2.00;;;15.90;99.90;;;;;;5010188;28;20601;-72
2022/11/18 10:56:48;;;;;;;4.97;1.40;;;15.90;99.90;;;;;;5008774;28;20573;-72
2022/11/18 10:59:31;;;;;;;3.60;1.43;;;15.90;99.90;;;;;;5010192;28;20658;-72
2022/11/18 11:02:21;;;;;;;4.63;1.60;;;15.90;99.90;;;;;;5009731;28;20565;-72
2022/11/18 11:04:50;;;;;;;3.60;1.10;;;15.90;99.90;;;;;;5009908;28;20704;-72
2022/11/18 11:07:26;;;;;;;4.23;1.00;;;15.90;99.90;;;;;;5009822;28;20624;-71
2022/11/18 11:10:21;;;;;;;6.83;1.20;;;15.90;99.90;;;;;;5010056;28;20557;-72
2022/11/18 11:13:03;;;;;;;4.07;0.90;;;15.90;99.90;;;;;;5008530;28;20593;-72
2022/11/18 11:15:40;;;;;;;2.17;0.70;;;15.90;99.90;;;;;;5008759;28;20579;-72
2022/11/18 11:18:40;;;;;;;3.20;0.80;;;15.90;99.90;;;;;;5008356;28;21246;-72
2022/11/18 11:21:13;;;;;;;5.30;0.90;;;15.90;99.90;;;;;;4998097;28;20927;-72
2022/11/18 11:23:40;;;;;;;3.20;1.00;;;15.90;99.90;;;;;;5008007;28;20598;-71
2022/11/18 11:26:30;;;;;;;6.90;1.40;;;15.90;99.90;;;;;;5009641;28;20613;-72
2022/11/18 11:29:17;;;;;;;6.90;2.43;;;15.90;99.90;;;;;;5008359;28;20569;-72
2022/11/18 11:32:19;;;;;;;4.50;1.77;;;15.90;99.90;;;;;;5009513;28;20593;-72
2022/11/18 11:34:50;;;;;;;2.57;1.10;;;15.90;99.90;;;;;;4991958;28;20973;-73
2022/11/18 11:37:45;;;;;;;2.97;1.57;;;15.90;99.90;;;;;;5009285;28;20620;-73
2022/11/18 11:40:41;;;;;;;5.37;0.90;;;15.90;99.90;;;;;;4992042;28;20581;-73
2022/11/18 11:43:20;;;;;;;5.37;1.80;;;15.90;99.90;;;;;;5009002;28;20600;-73
2022/11/18 11:45:54;;;;;;;11.03;6.27;;;15.90;99.90;;;;;;5009656;28;20581;-73
2022/11/18 11:48:44;;;;;;;15.73;8.67;;;15.90;99.90;;;;;;5009245;28;20573;-73
2022/11/18 11:51:39;;;;;;;7.73;4.30;;;15.90;99.90;;;;;;5009540;28;21117;-72
2022/11/18 11:54:16;;;;;;;9.80;5.17;;;15.80;99.90;;;;;;5009470;28;20695;-72
2022/11/18 11:56:57;;;;;;;12.47;6.90;;;15.80;99.90;;;;;;5009668;28;20573;-73
2022/11/18 11:59:38;;;;;;;16.10;10.53;;;15.80;99.90;;;;;;5009481;28;20569;-73
2022/11/18 12:02:20;;;;;;;14.17;10.43;;;15.70;99.90;;;;;;5009469;28;20735;-73
2022/11/18 12:04:49;;;;;;;9.27;5.40;;;15.70;99.90;;;;;;5009269;28;20688;-73
2022/11/18 12:07:27;;;;;;;7.83;4.97;;;15.70;99.90;;;;;;5009859;28;20980;-72
2022/11/18 12:10:02;;;;;;;8.60;3.67;;;15.60;99.90;;;;;;4991702;28;20569;-72
2022/11/18 12:12:45;;;;;;;8.93;3.60;;;15.60;99.90;;;;;;5011071;28;20607;-72
2022/11/18 12:15:24;;;;;;;4.97;2.93;;;15.60;99.90;;;;;;5013161;28;20632;-72
2022/11/18 12:18:20;;;;;;;8.20;1.97;;;15.70;99.90;;;;;;5013238;28;20564;-72
2022/11/18 12:20:48;;;;;;;9.10;2.90;;;15.70;99.90;;;;;;5012691;28;20959;-73
2022/11/18 12:23:17;;;;;;;7.30;2.87;;;15.70;99.90;;;;;;5012810;28;20596;-72
2022/11/18 12:25:48;;;;;;;7.03;3.90;;;15.80;99.90;;;;;;5012712;28;20572;-72
2022/11/18 12:28:33;;;;;;;4.07;2.17;;;15.80;99.90;;;;;;4995314;28;20616;-72
2022/11/18 12:31:17;;;;;;;9.83;2.90;;;15.80;99.90;;;;;;5012649;28;20568;-72
2022/11/18 12:33:53;;;;;;;5.20;1.60;;;15.80;99.90;;;;;;5012852;28;21128;-72
2022/11/18 12:36:31;;;;;;;7.37;1.90;;;15.80;99.90;;;;;;4995252;28;21266;-72
2022/11/18 12:39:16;;;;;;;7.83;3.20;;;15.80;99.90;;;;;;5012900;28;20576;-72
2022/11/18 12:44:30;;;;;;;8.50;4.23;;;15.90;99.90;;;;;;5012581;28;20739;-71
2022/11/18 12:47:00;;;;;;;9.80;4.57;;;15.90;99.90;;;;;;5012198;28;20617;-72
2022/11/18 12:49:25;;;;;;;5.70;3.50;;;15.90;99.90;;;;;;4995007;28;21204;-72
2022/11/18 12:51:53;;;;;;;9.70;6.70;;;16.00;99.90;;;;;;5012113;28;20651;-72
2022/11/18 12:54:27;;;;;;;5.53;3.17;;;16.00;99.90;;;;;;5012139;28;20190;-72
2022/11/18 12:56:54;;;;;;;9.23;3.90;;;16.00;99.90;;;;;;5012335;28;20587;-72
2022/11/18 12:59:32;;;;;;;6.63;2.53;;;16.10;99.90;;;;;;4999868;28;20601;-72
2022/11/18 13:02:03;;;;;;;5.50;1.80;;;16.10;99.90;;;;;;4975287;28;20585;-72
2022/11/18 13:04:29;;;;;;;3.03;1.67;;;16.20;99.90;;;;;;4975518;28;20602;-73
2022/11/18 13:06:58;;;;;;;4.90;1.20;;;16.20;99.90;;;;;;5000946;28;20628;-72
2022/11/18 13:09:28;;;;;;;4.83;1.70;;;16.30;99.90;;;;;;5000443;28;20249;-72
2022/11/18 13:11:58;;;;;;;4.67;2.20;;;16.30;99.90;;;;;;4994275;28;20573;-72
2022/11/18 13:17:53;;;;;;;5.30;2.03;;;16.20;99.90;;;;;;4994044;28;20580;-73
2022/11/18 13:20:34;;;;;;;6.80;2.60;;;16.20;99.90;;;;;;4994417;28;20615;-73
2022/11/18 13:25:49;;;;;;;5.87;4.30;;;16.10;99.90;;;;;;5011993;28;20619;-72
2022/11/18 13:28:43;;;;;;;6.37;3.37;;;16.10;99.90;;;;;;5011429;28;20566;-72
2022/11/18 13:31:34;;;;;;;5.50;3.00;;;16.00;99.90;;;;;;4994232;28;20574;-72